createdAt,value
2022-10-12T00:04:26.263Z,98302.19
2022-10-12T00:09:29.657Z,98299.47
2022-10-12T00:14:32.972Z,98290.16
2022-10-12T00:19:37.692Z,98291.78
2022-10-12T00:24:42.957Z,98300.19
2022-10-12T00:29:46.492Z,98298.56
2022-10-12T00:34:51.291Z,98291.47
2022-10-12T00:39:54.561Z,98290.81
2022-10-12T00:44:58.026Z,98285.84
2022-10-12T00:50:10.236Z,98277.22
2022-10-12T00:55:19.027Z,98274.00
2022-10-12T01:00:23.845Z,98283.78
2022-10-12T01:05:29.369Z,98288.00
2022-10-12T01:10:32.861Z,98292.25
2022-10-12T01:15:40.587Z,98292.47
2022-10-12T01:20:58.792Z,98288.34
2022-10-12T01:26:33.609Z,98294.81
2022-10-12T01:31:42.797Z,98291.25
2022-10-12T01:36:52.807Z,98283.56
2022-10-12T01:42:01.323Z,98290.97
2022-10-12T01:47:06.252Z,98285.13
2022-10-12T01:52:25.531Z,98286.88
2022-10-12T01:57:36.847Z,98278.72
2022-10-12T02:02:52.905Z,98272.56
2022-10-12T02:08:01.953Z,98275.78
2022-10-12T02:13:10.186Z,98273.81
2022-10-12T02:18:19.882Z,98270.44
2022-10-12T02:23:25.334Z,98268.47
2022-10-12T02:28:31.534Z,98275.41
2022-10-12T02:33:43.724Z,98266.81
2022-10-12T02:38:54.453Z,98267.81
2022-10-12T02:44:01.232Z,98265.19
2022-10-12T02:49:06.923Z,98251.44
2022-10-12T02:54:10.681Z,98251.06
2022-10-12T02:59:14.868Z,98243.72
2022-10-12T03:04:19.622Z,98249.03
2022-10-12T03:09:23.141Z,98241.31
2022-10-12T03:14:27.478Z,98250.88
2022-10-12T03:19:32.370Z,98252.63
2022-10-12T03:24:35.744Z,98260.88
2022-10-12T03:29:39.197Z,98254.72
2022-10-12T03:34:43.899Z,98258.03
2022-10-12T03:39:47.383Z,98257.16
2022-10-12T03:44:50.721Z,98257.19
2022-10-12T03:49:55.351Z,98252.88
2022-10-12T03:54:59.127Z,98245.28
2022-10-12T04:00:02.611Z,98241.88
2022-10-12T04:05:16.634Z,98255.03
2022-10-12T04:10:20.974Z,98254.09
2022-10-12T04:15:24.449Z,98255.03
2022-10-12T04:20:29.877Z,98250.78
2022-10-12T04:25:33.509Z,98249.91
2022-10-12T04:30:37.156Z,98248.34
2022-10-12T04:35:42.184Z,98249.72
2022-10-12T04:40:48.899Z,98252.50
2022-10-12T04:45:57.418Z,98253.31
2022-10-12T04:51:02.488Z,98244.75
2022-10-12T04:56:07.348Z,98251.06
2022-10-12T05:01:11.290Z,98244.75
2022-10-12T05:06:16.545Z,98243.06
2022-10-12T05:11:19.962Z,98246.91
2022-10-12T05:16:23.315Z,98243.16
2022-10-12T05:21:27.929Z,98252.16
2022-10-12T05:26:31.329Z,98255.53
2022-10-12T05:31:34.785Z,98242.22
2022-10-12T05:36:39.535Z,98249.56
2022-10-12T05:41:42.813Z,98248.34
2022-10-12T05:46:46.215Z,98250.16
2022-10-12T05:51:51.023Z,98250.06
2022-10-12T05:56:54.549Z,98245.69
2022-10-12T06:01:58.321Z,98245.56
2022-10-12T06:07:03.263Z,98248.75
2022-10-12T06:12:07.085Z,98249.00
2022-10-12T06:17:10.746Z,98243.78
2022-10-12T06:22:15.467Z,98241.75
2022-10-12T06:27:19.991Z,98225.69
2022-10-12T06:32:23.350Z,98232.59
2022-10-12T06:37:48.981Z,98225.25
2022-10-12T06:42:58.314Z,98231.63
2022-10-12T06:48:02.154Z,98229.59
2022-10-12T06:53:06.919Z,98230.78
2022-10-12T06:58:10.398Z,98243.63
2022-10-12T07:03:14.697Z,98235.28
2022-10-12T07:08:19.424Z,98237.25
2022-10-12T07:13:22.837Z,98234.06
2022-10-12T07:18:26.388Z,98240.84
2022-10-12T07:23:32.249Z,98235.47
2022-10-12T07:28:36.733Z,98237.47
2022-10-12T07:33:40.280Z,98222.72
2022-10-12T07:38:45.693Z,98226.06
2022-10-12T07:43:49.078Z,98223.09
2022-10-12T07:48:52.524Z,98214.13
2022-10-12T07:53:57.624Z,98208.75
2022-10-12T07:59:01.110Z,98204.19
2022-10-12T08:04:04.902Z,98197.75
2022-10-12T08:09:10.388Z,98203.91
2022-10-12T08:14:16.007Z,98200.00
2022-10-12T08:19:19.684Z,98199.97
2022-10-12T08:24:24.641Z,98197.56
2022-10-12T08:29:28.162Z,98196.97
2022-10-12T08:34:31.954Z,98186.97
2022-10-12T08:39:37.038Z,98179.97
2022-10-12T08:45:00.883Z,98172.06
2022-10-12T08:50:08.030Z,98165.50
2022-10-12T08:55:24.944Z,98159.81
2022-10-12T09:00:31.216Z,98160.41
2022-10-12T09:05:41.504Z,98158.16
2022-10-12T09:10:51.002Z,98152.66
2022-10-12T09:16:00.282Z,98161.84
2022-10-12T09:21:06.934Z,98159.78
2022-10-12T09:26:16.863Z,98164.41
2022-10-12T09:31:38.503Z,98151.28
2022-10-12T09:36:43.164Z,98156.53
2022-10-12T09:41:50.174Z,98152.03
2022-10-12T09:46:58.326Z,98142.66
2022-10-12T09:52:02.097Z,98137.72
2022-10-12T09:57:08.451Z,98130.50
2022-10-12T10:02:17.261Z,98131.47
2022-10-12T10:07:25.818Z,98128.38
2022-10-12T10:12:31.092Z,98132.53
2022-10-12T10:17:35.436Z,98124.72
2022-10-12T10:22:48.807Z,98122.84
2022-10-12T10:28:13.751Z,98130.06
2022-10-12T10:33:19.440Z,98134.16
2022-10-12T10:38:23.152Z,98132.94
2022-10-12T10:43:31.332Z,98128.00
2022-10-12T10:48:51.505Z,98129.38
2022-10-12T10:53:55.264Z,98118.41
2022-10-12T10:59:09.877Z,98120.75
2022-10-12T11:04:18.671Z,98118.97
2022-10-12T11:09:30.620Z,98120.00
2022-10-12T11:14:42.383Z,98111.25
2022-10-12T11:19:52.257Z,98103.66
2022-10-12T11:25:04.138Z,98093.50
2022-10-12T11:30:16.270Z,98092.34
2022-10-12T11:35:27.863Z,98089.38
2022-10-12T11:46:19.302Z,98086.28
2022-10-12T11:51:23.699Z,98079.47
2022-10-12T11:56:33.720Z,98072.59
2022-10-12T12:02:00.290Z,98064.66
2022-10-12T12:07:07.998Z,98057.25
2022-10-12T12:12:22.178Z,98064.25
2022-10-12T12:17:32.152Z,98047.09
2022-10-12T12:22:55.106Z,98037.22
2022-10-12T12:28:02.530Z,98040.38
2022-10-12T12:33:29.273Z,98032.22
2022-10-12T12:38:35.269Z,98024.78
2022-10-12T12:44:04.270Z,98034.00
2022-10-12T12:49:29.272Z,98023.31
2022-10-12T12:54:36.023Z,98016.34
2022-10-12T13:00:10.029Z,98023.25
2022-10-12T13:05:45.188Z,98017.28
2022-10-12T13:11:05.457Z,98019.28
2022-10-12T13:16:57.241Z,98016.03
2022-10-12T13:21:48.836Z,98015.94
2022-10-12T13:26:56.853Z,98011.81
2022-10-12T13:32:05.207Z,98001.25
2022-10-12T13:37:14.159Z,97994.06
2022-10-12T13:42:22.493Z,97997.50
2022-10-12T13:47:27.867Z,97994.78
2022-10-12T13:52:34.646Z,97996.97
2022-10-12T13:57:42.757Z,97989.06
2022-10-12T14:02:56.234Z,97985.66
2022-10-12T14:08:06.867Z,97986.66
2022-10-12T14:13:15.722Z,97985.38
2022-10-12T14:18:37.665Z,97972.75
2022-10-12T14:23:48.128Z,97969.91
2022-10-12T14:28:51.898Z,97974.88
2022-10-12T14:33:55.869Z,97979.81
2022-10-12T14:39:14.270Z,97974.06
2022-10-12T14:44:19.769Z,97973.97
2022-10-12T14:49:27.210Z,97975.25
2022-10-12T14:54:32.103Z,97969.72
2022-10-12T14:59:36.723Z,97966.03
2022-10-12T15:04:40.136Z,97970.53
2022-10-12T15:09:45.698Z,97981.19
2022-10-12T15:14:50.379Z,97971.63
2022-10-12T15:19:56.935Z,97974.44
2022-10-12T15:25:21.298Z,97982.91
2022-10-12T15:30:24.740Z,97980.38
2022-10-12T15:35:34.273Z,97972.06
2022-10-12T15:40:40.229Z,97971.91
2022-10-12T15:45:45.210Z,97973.78
2022-10-12T15:50:50.278Z,97970.50
2022-10-12T15:55:56.870Z,97968.31
2022-10-12T16:01:00.477Z,97967.91
2022-10-12T16:06:08.871Z,97968.34
2022-10-12T16:11:17.987Z,97972.16
2022-10-12T16:16:21.561Z,97965.47
2022-10-12T16:21:25.029Z,97964.16
2022-10-12T16:26:30.060Z,97969.16
2022-10-12T16:31:34.311Z,97955.84
2022-10-12T16:36:39.040Z,97959.09
2022-10-12T16:41:43.785Z,97964.03
2022-10-12T16:46:48.129Z,97979.81
2022-10-12T16:51:51.743Z,97968.22
2022-10-12T16:56:56.555Z,97976.19
2022-10-12T17:02:01.026Z,97967.00
2022-10-12T17:07:04.787Z,97966.63
2022-10-12T17:12:10.181Z,97962.06
2022-10-12T17:17:13.633Z,97965.63
2022-10-12T17:22:17.648Z,97962.47
2022-10-12T17:27:23.055Z,97962.31
2022-10-12T17:32:27.158Z,97968.63
2022-10-12T17:37:30.598Z,97976.22
2022-10-12T17:42:40.951Z,97982.13
2022-10-12T17:47:46.920Z,97984.59
2022-10-12T17:52:54.038Z,97985.31
2022-10-12T17:57:59.152Z,97986.66
2022-10-12T18:03:02.826Z,97985.41
2022-10-12T18:08:07.348Z,97978.94
2022-10-12T18:13:13.010Z,97987.94
2022-10-12T18:18:17.958Z,97989.53
2022-10-12T18:23:23.180Z,97988.97
2022-10-12T18:28:31.839Z,97991.72
2022-10-12T18:33:38.427Z,97982.41
2022-10-12T18:38:48.119Z,97980.13
2022-10-12T18:44:01.584Z,97978.59
2022-10-12T18:49:08.561Z,97981.53
2022-10-12T18:54:14.243Z,97976.88
2022-10-12T18:59:20.317Z,97977.91
2022-10-12T19:04:24.122Z,97976.41
2022-10-12T19:09:27.694Z,97972.25
2022-10-12T19:14:33.300Z,97977.09
2022-10-12T19:19:38.231Z,97968.28
2022-10-12T19:24:45.148Z,97966.06
2022-10-12T19:29:53.092Z,97965.16
2022-10-12T19:34:57.010Z,97961.94
2022-10-12T19:40:04.011Z,97959.09
2022-10-12T19:45:13.260Z,97965.59
2022-10-12T19:50:16.904Z,97956.75
2022-10-12T19:55:20.406Z,97951.94
2022-10-12T20:00:25.157Z,97956.94
2022-10-12T20:05:29.076Z,97958.38
2022-10-12T20:10:32.511Z,97951.56
2022-10-12T20:15:37.356Z,97950.41
2022-10-12T20:20:42.440Z,97950.91
2022-10-12T20:25:48.329Z,97955.34
2022-10-12T20:30:53.684Z,97960.06
2022-10-12T20:35:57.223Z,97961.38
2022-10-12T20:41:04.403Z,97965.53
2022-10-12T20:46:11.671Z,97963.47
2022-10-12T20:51:20.328Z,97958.88
2022-10-12T20:56:23.768Z,97957.53
2022-10-12T21:01:30.005Z,97937.41
2022-10-12T21:06:33.444Z,97927.91
2022-10-12T21:11:37.228Z,97913.78
2022-10-12T21:16:42.175Z,97919.16
2022-10-12T21:21:46.667Z,97917.31
2022-10-12T21:26:51.791Z,97916.09
2022-10-12T21:31:58.296Z,97914.31
2022-10-12T21:37:01.669Z,97914.38
2022-10-12T21:42:05.414Z,97910.72
2022-10-12T21:47:12.061Z,97914.88
2022-10-12T21:52:17.679Z,97907.19
2022-10-12T21:57:21.514Z,97915.28
2022-10-12T22:02:26.148Z,97897.59
2022-10-12T22:07:29.686Z,97898.63
2022-10-12T22:12:33.202Z,97897.50
2022-10-12T22:17:38.168Z,97895.38
2022-10-12T22:22:41.607Z,97904.72
2022-10-12T22:27:45.019Z,97905.84
2022-10-12T22:32:49.870Z,97883.63
2022-10-12T22:37:53.225Z,97899.06
2022-10-12T22:42:56.637Z,97899.91
2022-10-12T22:48:01.436Z,97901.59
2022-10-12T22:53:04.836Z,97915.25
2022-10-12T22:58:08.705Z,97907.19
2022-10-12T23:03:15.268Z,97909.47
2022-10-12T23:08:18.948Z,97897.00
2022-10-12T23:13:22.418Z,97899.25
2022-10-12T23:18:27.177Z,97907.47
2022-10-12T23:23:30.715Z,97914.16
2022-10-12T23:28:34.692Z,97914.41
2022-10-12T23:33:39.760Z,97906.94
2022-10-12T23:38:44.542Z,97909.38
2022-10-12T23:43:47.971Z,97901.69
2022-10-12T23:48:52.758Z,97902.44
2022-10-12T23:53:56.096Z,97900.97
2022-10-12T23:59:00.496Z,97896.50
